createdAt,value
2016-12-14T00:00:01.420Z,24.18
2016-12-14T00:00:41.994Z,24.28
2016-12-14T00:01:22.567Z,24.27
2016-12-14T00:02:03.147Z,24.27
2016-12-14T00:02:43.747Z,24.27
2016-12-14T00:03:24.322Z,24.25
2016-12-14T00:04:04.906Z,24.21
2016-12-14T00:04:45.507Z,24.27
2016-12-14T00:05:26.134Z,24.24
2016-12-14T00:06:06.726Z,24.22
2016-12-14T00:06:47.314Z,24.21
2016-12-14T00:07:27.904Z,24.28
2016-12-14T00:08:08.490Z,24.22
2016-12-14T00:08:49.069Z,24.21
2016-12-14T00:09:29.656Z,24.21
2016-12-14T00:10:10.234Z,24.25
2016-12-14T00:10:50.813Z,24.21
2016-12-14T00:11:31.401Z,24.21
2016-12-14T00:12:12.004Z,24.2
2016-12-14T00:12:52.593Z,24.18
2016-12-14T00:13:33.177Z,24.15
2016-12-14T00:14:13.765Z,24.21
2016-12-14T00:14:54.354Z,24.2
2016-12-14T00:15:34.941Z,24.18
2016-12-14T00:16:15.540Z,24.22
2016-12-14T00:16:56.115Z,24.24
2016-12-14T00:17:36.696Z,24.16
2016-12-14T00:18:17.289Z,24.15
2016-12-14T00:18:57.894Z,24.21
2016-12-14T00:19:38.472Z,24.18
2016-12-14T00:20:19.057Z,24.13
2016-12-14T00:20:59.642Z,24.13
2016-12-14T00:21:40.235Z,24.1
2016-12-14T00:22:20.818Z,24.2
2016-12-14T00:23:01.403Z,24.15
2016-12-14T00:23:41.998Z,24.09
2016-12-14T00:24:22.599Z,24.2
2016-12-14T00:25:03.171Z,24.15
2016-12-14T00:25:43.753Z,24.09
2016-12-14T00:26:24.339Z,24.13
2016-12-14T00:27:04.924Z,24.15
2016-12-14T00:27:45.514Z,24.18
2016-12-14T00:28:26.087Z,24.12
2016-12-14T00:29:06.673Z,24.16
2016-12-14T00:29:47.257Z,24.09
2016-12-14T00:30:27.847Z,24.21
2016-12-14T00:31:08.435Z,24.21
2016-12-14T00:31:49.015Z,24.09
2016-12-14T00:32:29.618Z,24.15
2016-12-14T00:33:10.200Z,24.12
2016-12-14T00:33:50.767Z,24.15
2016-12-14T00:34:31.372Z,24.15
2016-12-14T00:35:11.951Z,24.21
2016-12-14T00:35:52.522Z,24.1
2016-12-14T00:36:33.109Z,24.13
2016-12-14T00:37:13.688Z,24.06
2016-12-14T00:37:54.283Z,24.03
2016-12-14T00:38:34.858Z,24.12
2016-12-14T00:39:15.440Z,24.15
2016-12-14T00:39:56.029Z,24.16
2016-12-14T00:40:36.614Z,24.09
2016-12-14T00:41:17.197Z,24.13
2016-12-14T00:41:57.782Z,24.15
2016-12-14T00:42:38.365Z,24.18
2016-12-14T00:43:18.950Z,24.09
2016-12-14T00:43:59.535Z,24.08
2016-12-14T00:44:40.123Z,24.15
2016-12-14T00:45:20.716Z,24.09
2016-12-14T00:46:01.302Z,24.22
2016-12-14T00:46:41.891Z,24.1
2016-12-14T00:47:22.494Z,24.13
2016-12-14T00:48:03.084Z,24.08
2016-12-14T00:48:43.679Z,24.09
2016-12-14T00:49:24.252Z,24.1
2016-12-14T00:50:04.834Z,24.15
2016-12-14T00:50:45.413Z,24.08
2016-12-14T00:51:25.995Z,24.15
2016-12-14T00:52:06.585Z,24.12
2016-12-14T00:52:47.171Z,24.12
2016-12-14T00:53:27.749Z,24.13
2016-12-14T00:54:08.337Z,24.12
2016-12-14T00:54:48.930Z,24.15
2016-12-14T00:55:29.520Z,24.12
2016-12-14T00:56:10.104Z,24.08
2016-12-14T00:56:50.689Z,24.09
2016-12-14T00:57:31.273Z,24.08
2016-12-14T00:58:11.860Z,24.1
2016-12-14T00:58:52.459Z,24.15
2016-12-14T00:59:33.056Z,24.12
2016-12-14T01:00:13.631Z,24.12
2016-12-14T01:00:54.223Z,24.18
2016-12-14T01:01:34.803Z,24.09
2016-12-14T01:02:15.385Z,24.12
2016-12-14T01:02:55.971Z,24.09
2016-12-14T01:03:36.551Z,24.06
2016-12-14T01:04:17.139Z,24.1
2016-12-14T01:04:57.734Z,24.13
2016-12-14T01:05:38.324Z,24.06
2016-12-14T01:06:18.935Z,24.09
2016-12-14T01:06:59.515Z,24.06
2016-12-14T01:07:40.106Z,24.1
2016-12-14T01:08:20.686Z,24.1
2016-12-14T01:09:01.270Z,24.1
2016-12-14T01:09:41.861Z,24.1
2016-12-14T01:10:22.458Z,24.08
2016-12-14T01:11:03.050Z,24.09
2016-12-14T01:11:43.642Z,24.13
2016-12-14T01:12:24.223Z,24.1
2016-12-14T01:13:04.808Z,24.08
2016-12-14T01:13:45.387Z,24.12
2016-12-14T01:14:25.980Z,24.12
2016-12-14T01:15:06.556Z,24.12
2016-12-14T01:15:47.148Z,24.1
2016-12-14T01:16:27.730Z,24.1
2016-12-14T01:17:08.317Z,24.1
2016-12-14T01:17:48.903Z,24.13
2016-12-14T01:18:29.522Z,24.1
2016-12-14T01:19:10.105Z,24.09
2016-12-14T01:19:50.702Z,24.12
2016-12-14T01:20:31.285Z,24.08
2016-12-14T01:21:11.868Z,24.12
2016-12-14T01:21:52.455Z,24.06
2016-12-14T01:22:33.049Z,24.08
2016-12-14T01:23:13.644Z,24.03
2016-12-14T01:23:54.240Z,24.06
2016-12-14T01:24:34.821Z,24.03
2016-12-14T01:25:15.407Z,24.03
2016-12-14T01:25:55.987Z,24.03
2016-12-14T01:26:36.590Z,24.06
2016-12-14T01:27:17.170Z,24.06
2016-12-14T01:27:57.777Z,24.09
2016-12-14T01:28:38.375Z,24.02
2016-12-14T01:29:18.977Z,24.02
2016-12-14T01:29:59.555Z,24.06
2016-12-14T01:30:40.156Z,24.09
2016-12-14T01:31:20.732Z,24.06
2016-12-14T01:32:01.316Z,24.06
2016-12-14T01:32:41.903Z,24.03
2016-12-14T01:33:22.494Z,24.05
2016-12-14T01:34:03.118Z,24.09
2016-12-14T01:34:43.700Z,24.09
2016-12-14T01:35:24.303Z,24.02
2016-12-14T01:36:04.917Z,24.08
2016-12-14T01:36:45.511Z,24.06
2016-12-14T01:37:26.113Z,24.02
2016-12-14T01:38:06.705Z,24.05
2016-12-14T01:38:47.304Z,24
2016-12-14T01:39:27.896Z,24.09
2016-12-14T01:40:08.523Z,24.02
2016-12-14T01:40:49.118Z,24.05
2016-12-14T01:41:29.707Z,24.05
2016-12-14T01:42:10.282Z,24.02
2016-12-14T01:42:50.879Z,24.02
2016-12-14T01:43:31.484Z,24.08
2016-12-14T01:44:12.083Z,24.02
2016-12-14T01:44:52.667Z,24.05
2016-12-14T01:45:33.256Z,23.95
2016-12-14T01:46:13.839Z,24.05
2016-12-14T01:46:54.418Z,24.06
2016-12-14T01:47:35.001Z,23.97
2016-12-14T01:48:15.597Z,24.06
2016-12-14T01:48:56.186Z,23.95
2016-12-14T01:49:36.788Z,23.94
2016-12-14T01:50:17.385Z,24
2016-12-14T01:50:57.969Z,23.97
2016-12-14T01:51:38.555Z,24.03
2016-12-14T01:52:19.157Z,23.95
2016-12-14T01:52:59.764Z,24.03
2016-12-14T01:53:40.342Z,23.97
2016-12-14T01:54:20.971Z,23.94
2016-12-14T01:55:01.573Z,23.98
2016-12-14T01:55:42.147Z,23.93
2016-12-14T01:56:22.732Z,24
2016-12-14T01:57:03.314Z,23.93
2016-12-14T01:57:43.896Z,23.95
2016-12-14T01:58:24.475Z,23.93
2016-12-14T01:59:05.052Z,24.05
2016-12-14T01:59:45.636Z,23.94
2016-12-14T02:00:26.219Z,23.95
2016-12-14T02:01:06.812Z,23.97
2016-12-14T02:01:47.386Z,23.95
2016-12-14T02:02:27.963Z,23.95
2016-12-14T02:03:08.559Z,23.97
2016-12-14T02:03:49.136Z,23.94
2016-12-14T02:04:29.735Z,23.95
2016-12-14T02:05:10.320Z,24.06
2016-12-14T02:05:50.915Z,24
2016-12-14T02:06:31.522Z,23.95
2016-12-14T02:07:12.139Z,24
2016-12-14T02:07:52.727Z,23.95
2016-12-14T02:08:33.303Z,23.97
2016-12-14T02:09:13.892Z,24.05
2016-12-14T02:09:54.481Z,23.98
2016-12-14T02:10:35.080Z,24.02
2016-12-14T02:11:15.687Z,23.93
2016-12-14T02:11:56.251Z,24.02
2016-12-14T02:12:36.846Z,23.94
2016-12-14T02:13:17.419Z,23.98
2016-12-14T02:13:58.003Z,23.95
2016-12-14T02:14:38.587Z,23.95
2016-12-14T02:15:19.172Z,23.94
2016-12-14T02:15:59.757Z,24
2016-12-14T02:16:40.343Z,24
2016-12-14T02:17:20.948Z,23.98
2016-12-14T02:18:01.546Z,24
2016-12-14T02:18:42.152Z,24.02
2016-12-14T02:19:22.746Z,24.03
2016-12-14T02:20:03.336Z,23.9
2016-12-14T02:20:43.919Z,24
2016-12-14T02:21:24.506Z,23.93
2016-12-14T02:22:05.086Z,23.95
2016-12-14T02:22:45.673Z,24
2016-12-14T02:23:26.263Z,23.97
2016-12-14T02:24:06.851Z,23.97
2016-12-14T02:24:47.433Z,23.95
2016-12-14T02:25:28.036Z,23.97
2016-12-14T02:26:08.618Z,23.94
2016-12-14T02:26:49.220Z,23.93
2016-12-14T02:27:29.815Z,23.93
2016-12-14T02:28:10.399Z,23.98
2016-12-14T02:28:50.991Z,24
2016-12-14T02:29:31.576Z,23.93
2016-12-14T02:30:12.176Z,24
2016-12-14T02:30:52.757Z,23.93
2016-12-14T02:31:33.338Z,23.93
2016-12-14T02:32:13.933Z,23.93
2016-12-14T02:32:54.517Z,23.93
2016-12-14T02:33:35.103Z,23.94
2016-12-14T02:34:15.684Z,23.94
2016-12-14T02:34:56.265Z,23.88
2016-12-14T02:35:36.857Z,23.93
2016-12-14T02:36:17.458Z,23.94
2016-12-14T02:36:58.058Z,23.95
2016-12-14T02:37:38.660Z,23.93
2016-12-14T02:38:19.245Z,23.88
2016-12-14T02:38:59.835Z,23.91
2016-12-14T02:39:40.426Z,23.91
2016-12-14T02:40:21.024Z,23.97
2016-12-14T02:41:01.618Z,23.88
2016-12-14T02:41:42.219Z,23.9
2016-12-14T02:42:22.817Z,23.93
2016-12-14T02:43:03.405Z,24
2016-12-14T02:43:44.000Z,23.93
2016-12-14T02:44:24.578Z,23.91
2016-12-14T02:45:05.164Z,23.9
2016-12-14T02:45:45.754Z,23.93
2016-12-14T02:46:26.339Z,23.91
2016-12-14T02:47:06.937Z,23.91
2016-12-14T02:47:47.531Z,23.85
2016-12-14T02:48:28.121Z,23.93
2016-12-14T02:49:08.704Z,23.94
2016-12-14T02:49:49.298Z,23.9
2016-12-14T02:50:29.891Z,23.88
2016-12-14T02:51:10.463Z,23.97
2016-12-14T02:51:51.050Z,23.91
2016-12-14T02:52:31.648Z,23.93
2016-12-14T02:53:12.239Z,23.88
2016-12-14T02:53:52.837Z,23.9
2016-12-14T02:54:33.444Z,23.88
2016-12-14T02:55:14.038Z,23.88
2016-12-14T02:55:54.624Z,23.85
2016-12-14T02:56:35.215Z,23.88
2016-12-14T02:57:15.798Z,23.85
2016-12-14T02:57:56.375Z,23.85
2016-12-14T02:58:36.966Z,23.87
2016-12-14T02:59:17.580Z,23.87
2016-12-14T02:59:58.168Z,23.87
2016-12-14T03:00:38.750Z,23.91
2016-12-14T03:01:19.337Z,23.85
2016-12-14T03:01:59.950Z,23.94
2016-12-14T03:02:40.537Z,23.87
2016-12-14T03:03:21.132Z,23.87
2016-12-14T03:04:01.709Z,23.8
2016-12-14T03:04:42.292Z,23.83
2016-12-14T03:05:22.881Z,23.83
2016-12-14T03:06:03.475Z,23.85
2016-12-14T03:06:44.063Z,23.79
2016-12-14T03:07:24.658Z,23.8
2016-12-14T03:08:05.246Z,23.84
2016-12-14T03:08:45.838Z,23.78
2016-12-14T03:09:26.431Z,23.8
2016-12-14T03:10:07.015Z,23.85
2016-12-14T03:10:47.592Z,23.78
2016-12-14T03:11:28.180Z,23.79
2016-12-14T03:12:08.765Z,23.87
2016-12-14T03:12:49.369Z,23.79
2016-12-14T03:13:29.955Z,23.84
2016-12-14T03:14:10.539Z,23.83
2016-12-14T03:14:51.123Z,23.8
2016-12-14T03:15:31.719Z,23.83
2016-12-14T03:16:12.300Z,23.83
2016-12-14T03:16:52.881Z,23.9
2016-12-14T03:17:33.470Z,23.93
2016-12-14T03:18:14.099Z,23.93
2016-12-14T03:18:54.682Z,23.84
2016-12-14T03:19:35.279Z,23.8
2016-12-14T03:20:15.880Z,23.79
2016-12-14T03:20:56.491Z,23.8
2016-12-14T03:21:37.080Z,23.79
2016-12-14T03:22:17.683Z,23.76
2016-12-14T03:22:58.265Z,23.78
2016-12-14T03:23:38.851Z,23.79
2016-12-14T03:24:19.447Z,23.78
2016-12-14T03:25:00.037Z,23.79
2016-12-14T03:25:40.625Z,23.78
2016-12-14T03:26:21.243Z,23.85
2016-12-14T03:27:01.826Z,23.79
2016-12-14T03:27:42.399Z,23.79
2016-12-14T03:28:23.012Z,23.79
2016-12-14T03:29:03.615Z,23.76
2016-12-14T03:29:44.213Z,23.78
2016-12-14T03:30:24.806Z,23.78
2016-12-14T03:31:05.408Z,23.76
2016-12-14T03:31:45.986Z,23.78
2016-12-14T03:32:26.568Z,23.78
2016-12-14T03:33:07.156Z,23.8
2016-12-14T03:33:47.742Z,23.78
2016-12-14T03:34:28.329Z,23.76
2016-12-14T03:35:08.914Z,23.76
2016-12-14T03:35:49.488Z,23.83
2016-12-14T03:36:30.084Z,23.78
2016-12-14T03:37:10.666Z,23.76
2016-12-14T03:37:51.268Z,23.76
2016-12-14T03:38:31.847Z,23.79
2016-12-14T03:39:12.468Z,23.83
2016-12-14T03:39:53.051Z,23.79
2016-12-14T03:40:33.644Z,23.79
2016-12-14T03:41:14.231Z,23.85
2016-12-14T03:41:54.828Z,23.79
2016-12-14T03:42:35.429Z,23.78
2016-12-14T03:43:16.022Z,23.79
2016-12-14T03:43:56.610Z,23.72
2016-12-14T03:44:37.191Z,23.79
2016-12-14T03:45:17.783Z,23.79
2016-12-14T03:45:58.381Z,23.76
2016-12-14T03:46:38.962Z,23.76
2016-12-14T03:47:19.554Z,23.78
2016-12-14T03:48:00.145Z,23.79
2016-12-14T03:48:40.745Z,23.78
2016-12-14T03:49:21.358Z,23.79
2016-12-14T03:50:01.961Z,23.76
2016-12-14T03:50:42.542Z,23.79
2016-12-14T03:51:23.127Z,23.79
2016-12-14T03:52:03.716Z,23.83
2016-12-14T03:52:44.297Z,23.84
2016-12-14T03:53:24.888Z,23.73
2016-12-14T03:54:05.483Z,23.78
2016-12-14T03:54:46.068Z,23.78
2016-12-14T03:55:26.658Z,23.8
2016-12-14T03:56:07.265Z,23.78
2016-12-14T03:56:47.839Z,23.78
2016-12-14T03:57:28.429Z,23.75
2016-12-14T03:58:09.015Z,23.78
2016-12-14T03:58:49.603Z,23.84
2016-12-14T03:59:30.204Z,23.79
2016-12-14T04:00:10.814Z,23.79
2016-12-14T04:00:51.418Z,23.75
2016-12-14T04:01:32.014Z,23.75
2016-12-14T04:02:12.616Z,23.76
2016-12-14T04:02:53.197Z,23.78
2016-12-14T04:03:33.770Z,23.79
2016-12-14T04:04:14.370Z,23.8
2016-12-14T04:04:54.946Z,23.76
2016-12-14T04:05:35.563Z,23.79
2016-12-14T04:06:16.147Z,23.73
2016-12-14T04:06:56.739Z,23.78
2016-12-14T04:07:37.324Z,23.78
2016-12-14T04:08:17.904Z,23.83
2016-12-14T04:08:58.481Z,23.8
2016-12-14T04:09:39.083Z,23.76
2016-12-14T04:10:19.666Z,23.78
2016-12-14T04:11:00.252Z,23.75
2016-12-14T04:11:40.844Z,23.79
2016-12-14T04:12:21.420Z,23.84
2016-12-14T04:13:02.052Z,23.8
2016-12-14T04:13:42.624Z,23.68
2016-12-14T04:14:23.212Z,23.78
2016-12-14T04:15:03.788Z,23.76
2016-12-14T04:15:44.375Z,23.79
2016-12-14T04:16:24.963Z,23.75
2016-12-14T04:17:05.559Z,23.69
2016-12-14T04:17:46.152Z,23.76
2016-12-14T04:18:26.730Z,23.75
2016-12-14T04:19:07.335Z,23.72
2016-12-14T04:19:47.916Z,23.73
2016-12-14T04:20:28.506Z,23.78
2016-12-14T04:21:09.111Z,23.8
2016-12-14T04:21:49.709Z,23.68
2016-12-14T04:22:30.289Z,23.7
2016-12-14T04:23:10.863Z,23.7
2016-12-14T04:23:51.438Z,23.75
2016-12-14T04:24:32.044Z,23.7
2016-12-14T04:25:12.610Z,23.75
2016-12-14T04:25:53.201Z,23.72
2016-12-14T04:26:33.778Z,23.7
2016-12-14T04:27:14.365Z,23.8
2016-12-14T04:27:54.959Z,23.75
2016-12-14T04:28:35.547Z,23.72
2016-12-14T04:29:16.142Z,23.79
2016-12-14T04:29:56.725Z,23.75
2016-12-14T04:30:37.316Z,23.72
2016-12-14T04:31:17.928Z,23.76
2016-12-14T04:31:58.514Z,23.8
2016-12-14T04:32:39.102Z,23.72
2016-12-14T04:33:19.690Z,23.75
2016-12-14T04:34:00.302Z,23.72
2016-12-14T04:34:40.893Z,23.8
2016-12-14T04:35:21.484Z,23.7
2016-12-14T04:36:02.079Z,23.75
2016-12-14T04:36:42.665Z,23.69
2016-12-14T04:37:23.249Z,23.75
2016-12-14T04:38:03.836Z,23.78
2016-12-14T04:38:44.436Z,23.73
2016-12-14T04:39:25.028Z,23.7
2016-12-14T04:40:05.616Z,23.72
2016-12-14T04:40:46.194Z,23.8
2016-12-14T04:41:26.787Z,23.73
2016-12-14T04:42:07.398Z,23.79
2016-12-14T04:42:48.003Z,23.79
2016-12-14T04:43:28.585Z,23.75
2016-12-14T04:44:09.198Z,23.72
2016-12-14T04:44:49.788Z,23.75
2016-12-14T04:45:30.359Z,23.7
2016-12-14T04:46:10.940Z,23.75
2016-12-14T04:46:51.514Z,23.66
2016-12-14T04:47:32.112Z,23.79
2016-12-14T04:48:12.699Z,23.73
2016-12-14T04:48:53.290Z,23.72
2016-12-14T04:49:33.872Z,23.68
2016-12-14T04:50:14.452Z,23.58
2016-12-14T04:50:55.041Z,23.66
2016-12-14T04:51:35.621Z,23.69
2016-12-14T04:52:16.215Z,23.72
2016-12-14T04:52:56.833Z,23.75
2016-12-14T04:53:37.426Z,23.7
2016-12-14T04:54:18.032Z,23.72
2016-12-14T04:54:58.617Z,23.69
2016-12-14T04:55:39.210Z,23.7
2016-12-14T04:56:19.788Z,23.7
2016-12-14T04:57:00.368Z,23.69
2016-12-14T04:57:40.966Z,23.65
2016-12-14T04:58:21.540Z,23.68
2016-12-14T04:59:02.128Z,23.75
2016-12-14T04:59:42.715Z,23.65
2016-12-14T05:00:23.321Z,23.73
2016-12-14T05:01:03.907Z,23.75
2016-12-14T05:01:44.498Z,23.75
2016-12-14T05:02:25.111Z,23.65
2016-12-14T05:03:05.687Z,23.65
2016-12-14T05:03:46.264Z,23.73
2016-12-14T05:04:26.861Z,23.68
2016-12-14T05:05:07.461Z,23.7
2016-12-14T05:05:48.076Z,23.66
2016-12-14T05:06:28.662Z,23.7
2016-12-14T05:07:09.242Z,23.65
2016-12-14T05:07:49.826Z,23.63
2016-12-14T05:08:30.409Z,23.66
2016-12-14T05:09:10.992Z,23.65
2016-12-14T05:09:51.592Z,23.68
2016-12-14T05:10:32.195Z,23.69
2016-12-14T05:11:12.780Z,23.66
2016-12-14T05:11:53.358Z,23.68
2016-12-14T05:12:33.936Z,23.7
2016-12-14T05:13:14.533Z,23.66
2016-12-14T05:13:55.114Z,23.68
2016-12-14T05:14:35.689Z,23.73
2016-12-14T05:15:16.279Z,23.72
2016-12-14T05:15:56.866Z,23.68
2016-12-14T05:16:37.456Z,23.68
2016-12-14T05:17:18.035Z,23.72
2016-12-14T05:17:59.589Z,23.65
2016-12-14T05:18:40.176Z,23.7
2016-12-14T05:19:20.755Z,23.65
2016-12-14T05:20:01.339Z,23.63
2016-12-14T05:20:41.937Z,23.7
2016-12-14T05:21:22.528Z,23.65
2016-12-14T05:22:03.136Z,23.68
2016-12-14T05:22:43.720Z,23.7
2016-12-14T05:23:24.298Z,23.66
2016-12-14T05:24:04.901Z,23.69
2016-12-14T05:24:45.467Z,23.7
2016-12-14T05:25:26.050Z,23.63
2016-12-14T05:26:06.634Z,23.6
2016-12-14T05:26:47.219Z,23.61
2016-12-14T05:27:27.813Z,23.65
2016-12-14T05:28:08.411Z,23.66
2016-12-14T05:28:49.004Z,23.61
2016-12-14T05:29:29.612Z,23.69
2016-12-14T05:30:10.208Z,23.69
2016-12-14T05:30:50.824Z,23.65
2016-12-14T05:31:31.419Z,23.69
2016-12-14T05:32:12.019Z,23.68
2016-12-14T05:32:52.615Z,23.7
2016-12-14T05:33:33.200Z,23.7
2016-12-14T05:34:13.812Z,23.63
2016-12-14T05:34:54.428Z,23.68
2016-12-14T05:35:35.020Z,23.72
2016-12-14T05:36:15.622Z,23.69
2016-12-14T05:36:56.217Z,23.69
2016-12-14T05:37:36.854Z,23.68
2016-12-14T05:38:17.453Z,23.69
2016-12-14T05:38:58.039Z,23.68
2016-12-14T05:39:38.651Z,23.63
2016-12-14T05:40:19.244Z,23.63
2016-12-14T05:40:59.842Z,23.65
2016-12-14T05:41:40.432Z,23.68
2016-12-14T05:42:21.026Z,23.63
2016-12-14T05:43:01.605Z,23.7
2016-12-14T05:43:42.205Z,23.65
2016-12-14T05:44:22.808Z,23.69
2016-12-14T05:45:03.396Z,23.66
2016-12-14T05:45:44.014Z,23.72
2016-12-14T05:46:24.594Z,23.66
2016-12-14T05:47:05.218Z,23.69
2016-12-14T05:47:45.820Z,23.66
2016-12-14T05:48:26.404Z,23.66
2016-12-14T05:49:06.996Z,23.68
2016-12-14T05:49:47.570Z,23.66
2016-12-14T05:50:28.141Z,23.61
2016-12-14T05:51:08.732Z,23.66
2016-12-14T05:51:49.326Z,23.65
2016-12-14T05:52:29.930Z,23.61
2016-12-14T05:53:10.508Z,23.69
2016-12-14T05:53:51.091Z,23.66
2016-12-14T05:54:31.684Z,23.68
2016-12-14T05:55:12.259Z,23.66
2016-12-14T05:55:52.839Z,23.65
2016-12-14T05:56:33.424Z,23.7
2016-12-14T05:57:14.013Z,23.73
2016-12-14T05:57:54.590Z,23.72
2016-12-14T05:58:35.181Z,23.68
2016-12-14T05:59:15.782Z,23.68
2016-12-14T05:59:56.372Z,23.58
2016-12-14T06:00:36.954Z,23.72
2016-12-14T06:01:17.553Z,23.66
2016-12-14T06:01:58.144Z,23.68
2016-12-14T06:02:38.765Z,23.63
2016-12-14T06:03:19.348Z,23.58
2016-12-14T06:03:59.943Z,23.7
2016-12-14T06:04:40.534Z,23.6
2016-12-14T06:05:21.131Z,23.6
2016-12-14T06:06:01.716Z,23.68
2016-12-14T06:06:42.308Z,23.61
2016-12-14T06:07:22.918Z,23.63
2016-12-14T06:08:03.497Z,23.66
2016-12-14T06:08:44.088Z,23.6
2016-12-14T06:09:24.678Z,23.66
2016-12-14T06:10:05.268Z,23.65
2016-12-14T06:10:45.881Z,23.69
2016-12-14T06:11:26.465Z,23.68
2016-12-14T06:12:07.081Z,23.65
2016-12-14T06:12:47.673Z,23.66
2016-12-14T06:13:28.270Z,23.68
2016-12-14T06:14:08.861Z,23.65
2016-12-14T06:14:49.470Z,23.65
2016-12-14T06:15:30.058Z,23.61
2016-12-14T06:16:10.640Z,23.7
2016-12-14T06:16:51.235Z,23.68
2016-12-14T06:17:31.823Z,23.68
2016-12-14T06:18:12.413Z,23.68
2016-12-14T06:18:53.001Z,23.68
2016-12-14T06:19:33.587Z,23.55
2016-12-14T06:20:14.175Z,23.7
2016-12-14T06:20:54.758Z,23.65
2016-12-14T06:21:35.339Z,23.69
2016-12-14T06:22:15.920Z,23.55
2016-12-14T06:22:56.503Z,23.66
2016-12-14T06:23:37.095Z,23.53
2016-12-14T06:24:17.686Z,23.7
2016-12-14T06:24:58.271Z,23.58
2016-12-14T06:25:38.858Z,23.73
2016-12-14T06:26:19.448Z,23.65
2016-12-14T06:27:00.039Z,23.68
2016-12-14T06:27:40.623Z,23.73
2016-12-14T06:28:21.209Z,23.65
2016-12-14T06:29:01.789Z,23.6
2016-12-14T06:29:42.378Z,23.68
2016-12-14T06:30:22.981Z,23.65
2016-12-14T06:31:03.570Z,23.68
2016-12-14T06:31:44.160Z,23.63
2016-12-14T06:32:24.750Z,23.73
2016-12-14T06:33:05.342Z,23.61
2016-12-14T06:33:45.926Z,23.7
2016-12-14T06:34:26.514Z,23.68
2016-12-14T06:35:07.113Z,23.63
2016-12-14T06:35:47.704Z,23.66
2016-12-14T06:36:28.287Z,23.72
2016-12-14T06:37:08.875Z,23.68
2016-12-14T06:37:49.464Z,23.63
2016-12-14T06:38:30.055Z,23.63
2016-12-14T06:39:10.643Z,23.65
2016-12-14T06:39:51.243Z,23.65
2016-12-14T06:40:31.828Z,23.7
2016-12-14T06:41:12.460Z,23.66
2016-12-14T06:41:53.053Z,23.72
2016-12-14T06:42:33.648Z,23.69
2016-12-14T06:43:14.237Z,23.65
2016-12-14T06:43:54.831Z,23.7
2016-12-14T06:44:35.416Z,23.66
2016-12-14T06:45:16.021Z,23.63
2016-12-14T06:45:56.617Z,23.69
2016-12-14T06:46:37.194Z,23.66
2016-12-14T06:47:17.791Z,23.65
2016-12-14T06:47:58.365Z,23.7
2016-12-14T06:48:38.961Z,23.66
2016-12-14T06:49:19.528Z,23.58
2016-12-14T06:50:00.128Z,23.68
2016-12-14T06:50:40.726Z,23.65
2016-12-14T06:51:21.302Z,23.66
2016-12-14T06:52:01.884Z,23.55
2016-12-14T06:52:42.476Z,23.72
2016-12-14T06:53:23.064Z,23.68
2016-12-14T06:54:03.674Z,23.72
2016-12-14T06:54:44.250Z,23.65
2016-12-14T06:55:24.827Z,23.72
2016-12-14T06:56:05.406Z,23.72
2016-12-14T06:56:46.006Z,23.69
2016-12-14T06:57:26.594Z,23.66
2016-12-14T06:58:07.187Z,23.7
2016-12-14T06:58:47.796Z,23.65
2016-12-14T06:59:28.396Z,23.66
2016-12-14T07:00:08.981Z,23.6
2016-12-14T07:00:49.590Z,23.72
2016-12-14T07:01:30.182Z,23.66
2016-12-14T07:02:10.774Z,23.65
2016-12-14T07:02:51.361Z,23.66
2016-12-14T07:03:31.967Z,23.63
2016-12-14T07:04:12.570Z,23.69
2016-12-14T07:04:53.160Z,23.66
2016-12-14T07:05:33.756Z,23.6
2016-12-14T07:06:14.356Z,23.65
2016-12-14T07:06:54.949Z,23.65
2016-12-14T07:07:35.559Z,23.61
2016-12-14T07:08:16.150Z,23.65
2016-12-14T07:08:56.743Z,23.65
2016-12-14T07:09:37.333Z,23.55
2016-12-14T07:10:17.954Z,23.61
2016-12-14T07:10:59.195Z,23.65
2016-12-14T07:11:39.786Z,23.65
2016-12-14T07:12:20.393Z,23.66
2016-12-14T07:13:00.984Z,23.7
2016-12-14T07:13:41.577Z,23.65
2016-12-14T07:14:22.170Z,23.65
2016-12-14T07:15:02.759Z,23.53
2016-12-14T07:15:43.361Z,23.6
2016-12-14T07:16:23.941Z,23.63
2016-12-14T07:17:04.518Z,23.61
2016-12-14T07:17:45.129Z,23.65
2016-12-14T07:18:25.712Z,23.63
2016-12-14T07:19:06.303Z,23.65
2016-12-14T07:19:46.926Z,23.61
2016-12-14T07:20:27.512Z,23.57
2016-12-14T07:21:08.098Z,23.6
2016-12-14T07:21:48.692Z,23.65
2016-12-14T07:22:29.293Z,23.6
2016-12-14T07:23:09.913Z,23.63
2016-12-14T07:23:50.496Z,23.61
2016-12-14T07:24:31.086Z,23.6
2016-12-14T07:25:11.675Z,23.68
2016-12-14T07:25:52.289Z,23.66
2016-12-14T07:26:32.900Z,23.6
2016-12-14T07:27:13.491Z,23.61
2016-12-14T07:27:54.067Z,23.65
2016-12-14T07:28:34.657Z,23.61
2016-12-14T07:29:15.255Z,23.66
2016-12-14T07:29:55.863Z,23.63
2016-12-14T07:30:36.471Z,23.58
2016-12-14T07:31:17.063Z,23.68
2016-12-14T07:31:57.654Z,23.61
2016-12-14T07:32:38.259Z,23.65
2016-12-14T07:33:18.878Z,23.58
2016-12-14T07:33:59.471Z,23.66
2016-12-14T07:34:40.077Z,23.58
2016-12-14T07:35:20.673Z,23.68
2016-12-14T07:36:01.284Z,23.54
2016-12-14T07:36:41.875Z,23.66
2016-12-14T07:37:22.462Z,23.69
2016-12-14T07:38:03.038Z,23.6
2016-12-14T07:38:43.655Z,23.61
2016-12-14T07:39:24.241Z,23.57
2016-12-14T07:40:04.848Z,23.63
2016-12-14T07:40:45.438Z,23.65
2016-12-14T07:41:26.063Z,23.72
2016-12-14T07:42:06.648Z,23.6
2016-12-14T07:42:47.238Z,23.69
2016-12-14T07:43:27.827Z,23.61
2016-12-14T07:44:08.452Z,23.69
2016-12-14T07:44:49.064Z,23.6
2016-12-14T07:45:29.643Z,23.68
2016-12-14T07:46:10.305Z,23.63
2016-12-14T07:46:50.918Z,23.65
2016-12-14T07:47:31.548Z,23.6
2016-12-14T07:48:12.246Z,23.63
2016-12-14T07:48:52.844Z,23.69
2016-12-14T07:49:33.456Z,23.72
2016-12-14T07:50:14.030Z,23.73
2016-12-14T07:50:54.631Z,23.65
2016-12-14T07:51:35.257Z,23.65
2016-12-14T07:52:15.866Z,23.63
2016-12-14T07:52:56.442Z,23.57
2016-12-14T07:53:37.070Z,23.66
2016-12-14T07:54:17.646Z,23.55
2016-12-14T07:54:58.255Z,23.65
2016-12-14T07:55:38.833Z,23.65
2016-12-14T07:56:19.430Z,23.68
2016-12-14T07:57:00.031Z,23.69
2016-12-14T07:57:40.828Z,23.65
2016-12-14T07:58:21.420Z,23.65
2016-12-14T07:59:01.993Z,23.72
2016-12-14T07:59:42.574Z,23.66
2016-12-14T08:00:23.155Z,23.65
2016-12-14T08:01:03.769Z,23.66
2016-12-14T08:01:44.378Z,23.69
2016-12-14T08:02:24.998Z,23.68
2016-12-14T08:03:05.594Z,23.72
2016-12-14T08:03:46.176Z,23.73
2016-12-14T08:04:26.777Z,23.65
2016-12-14T08:05:07.359Z,23.72
2016-12-14T08:05:47.947Z,23.66
2016-12-14T08:06:28.547Z,23.63
2016-12-14T08:07:09.209Z,23.66
2016-12-14T08:07:49.804Z,23.66
2016-12-14T08:08:30.398Z,23.72
2016-12-14T08:09:11.020Z,23.63
2016-12-14T08:09:51.620Z,23.65
2016-12-14T08:10:32.218Z,23.68
2016-12-14T08:11:12.800Z,23.65
2016-12-14T08:11:53.618Z,23.72
2016-12-14T08:12:34.028Z,23.69
2016-12-14T08:13:15.322Z,23.65
2016-12-14T08:13:55.201Z,23.61
2016-12-14T08:14:35.790Z,23.65
2016-12-14T08:15:17.861Z,23.73
2016-12-14T08:15:58.466Z,23.68
2016-12-14T08:16:39.053Z,23.63
2016-12-14T08:17:19.715Z,23.7
2016-12-14T08:18:00.386Z,23.72
2016-12-14T08:18:40.980Z,23.7
2016-12-14T08:19:21.582Z,23.75
2016-12-14T08:20:02.168Z,23.75
2016-12-14T08:20:42.818Z,23.73
2016-12-14T08:21:23.425Z,23.7
2016-12-14T08:22:04.065Z,23.75
2016-12-14T08:22:44.701Z,23.84
2016-12-14T08:23:25.301Z,23.73
2016-12-14T08:24:05.911Z,23.8
2016-12-14T08:24:46.508Z,23.79
2016-12-14T08:25:27.094Z,23.7
2016-12-14T08:26:07.700Z,23.72
2016-12-14T08:26:48.290Z,23.75
2016-12-14T08:27:28.899Z,23.83
2016-12-14T08:28:09.499Z,23.85
2016-12-14T08:28:50.100Z,23.8
2016-12-14T08:29:30.704Z,23.8
2016-12-14T08:30:11.307Z,23.78
2016-12-14T08:30:51.929Z,23.76
2016-12-14T08:31:32.514Z,23.78
2016-12-14T08:32:13.144Z,23.78
2016-12-14T08:32:53.723Z,23.78
2016-12-14T08:33:34.386Z,23.78
2016-12-14T08:34:14.917Z,23.79
2016-12-14T08:34:55.512Z,23.8
2016-12-14T08:35:36.119Z,23.76
2016-12-14T08:36:16.733Z,23.79
2016-12-14T08:36:57.313Z,23.76
2016-12-14T08:37:37.908Z,23.78
2016-12-14T08:38:18.557Z,23.84
2016-12-14T08:38:59.226Z,23.78
2016-12-14T08:39:39.997Z,23.79
2016-12-14T08:40:20.624Z,23.76
2016-12-14T08:41:01.250Z,23.76
2016-12-14T08:41:41.879Z,23.79
2016-12-14T08:42:22.505Z,23.8
2016-12-14T08:43:03.137Z,23.75
2016-12-14T08:43:43.759Z,23.79
2016-12-14T08:44:24.364Z,23.83
2016-12-14T08:45:04.968Z,23.8
2016-12-14T08:45:45.725Z,23.8